^^
Grace C. Lehan Memorial Weather Station Historical Data
Daily Summary for July 14, 2022 Units:  Both    English   Metric
Daily Weekly Monthly Yearly
  High: Low: Average:
Temperature: 78 °F /  25.6 °C 58.4 °F /  14.7 °C 69.2 °F /  20.7 °C
Dew Point: 63.1 °F /  17.3 °C 55.3 °F /  12.9 °C 59.4 °F /  15.2 °C
Humidity: 91% 55.6% 72%
Wind Speed: 8.7mph /  14km/h - 1.3mph /  2.1km/h
Wind Gust: 19mph /  30.6km/h - -
Wind- - WNW
Pressure: 29.94 in /  1013.8 hPa 29.74 in /  1007 hPa -
Precipitation: 0.00 in /  0 mm    
 
 
Tabular Data for July 14, 2022
Time Temperature Dew Point Pressure Wind Wind Speed Wind Gust Humidity Rainfall Rate (Hourly) solar
00:00 66.5 °F /  19.2 °C 58.3 °F /  14.6 °C 29.74in /  1007hPa WNW 3mph /  4.8km/h 9mph /  14.5km/h 75% 0.00in /  0mm 0 W/m2
00:09 66.1 °F /  18.9 °C 58 °F /  14.4 °C 29.75in /  1007.3hPa WNW 1.5mph /  2.4km/h 6mph /  9.7km/h 75% 0.00in /  0mm 0 W/m2
00:14 65.9 °F /  18.8 °C 58.1 °F /  14.5 °C 29.75in /  1007.3hPa WNW 1.6mph /  2.6km/h 9mph /  14.5km/h 76% 0.00in /  0mm 0 W/m2
00:19 65.7 °F /  18.7 °C 57.9 °F /  14.4 °C 29.75in /  1007.3hPa WNW 1.6mph /  2.6km/h 9mph /  14.5km/h 76% 0.00in /  0mm 0 W/m2
00:24 65.5 °F /  18.6 °C 57.7 °F /  14.3 °C 29.75in /  1007.3hPa West 3mph /  4.8km/h 10mph /  16.1km/h 76% 0.00in /  0mm 0 W/m2
00:29 65.3 °F /  18.5 °C 57.6 °F /  14.2 °C 29.75in /  1007.3hPa West 1mph /  1.6km/h 10mph /  16.1km/h 76% 0.00in /  0mm 0 W/m2
00:34 65.2 °F /  18.4 °C 57.6 °F /  14.2 °C 29.75in /  1007.3hPa West 1.7mph /  2.7km/h 10mph /  16.1km/h 76.4% 0.00in /  0mm 0 W/m2
00:39 65.1 °F /  18.4 °C 57.6 °F /  14.2 °C 29.75in /  1007.3hPa West 0.5mph /  0.8km/h 10mph /  16.1km/h 76.6% 0.00in /  0mm 0 W/m2
00:44 65 °F /  18.3 °C 57.4 °F /  14.1 °C 29.75in /  1007.3hPa West 1mph /  1.6km/h 10mph /  16.1km/h 76.5% 0.00in /  0mm 0 W/m2
00:49 64.9 °F /  18.3 °C 57.5 °F /  14.2 °C 29.75in /  1007.3hPa WNW 2.1mph /  3.4km/h 10mph /  16.1km/h 77% 0.00in /  0mm 0 W/m2
00:54 64.8 °F /  18.2 °C 57.5 °F /  14.2 °C 29.75in /  1007.3hPa WNW 0.4mph /  0.6km/h 10mph /  16.1km/h 77% 0.00in /  0mm 0 W/m2
00:59 64.7 °F /  18.2 °C 57.3 °F /  14.1 °C 29.76in /  1007.7hPa WNW 0.5mph /  0.8km/h 10mph /  16.1km/h 77% 0.00in /  0mm 0 W/m2
01:04 64.6 °F /  18.1 °C 57.3 °F /  14.1 °C 29.76in /  1007.7hPa West 0.6mph /  1km/h 10mph /  16.1km/h 77% 0.00in /  0mm 0 W/m2
01:09 64.6 °F /  18.1 °C 57.5 °F /  14.2 °C 29.76in /  1007.7hPa West 1.7mph /  2.7km/h 11mph /  17.7km/h 77.9% 0.00in /  0mm 0 W/m2
01:14 64.5 °F /  18.1 °C 57.5 °F /  14.2 °C 29.76in /  1007.7hPa West 1.2mph /  1.9km/h 13mph /  20.9km/h 78% 0.00in /  0mm 0 W/m2
01:19 64.5 °F /  18.1 °C 57.5 °F /  14.2 °C 29.76in /  1007.7hPa Calm   13mph /  20.9km/h 78% 0.00in /  0mm 0 W/m2
01:24 64.4 °F /  18 °C 57.4 °F /  14.1 °C 29.76in /  1007.7hPa West 0.3mph /  0.5km/h 13mph /  20.9km/h 78% 0.00in /  0mm 0 W/m2
01:29 64.3 °F /  17.9 °C 57.3 °F /  14.1 °C 29.76in /  1007.7hPa West 0.6mph /  1km/h 13mph /  20.9km/h 78% 0.00in /  0mm 0 W/m2
01:34 64.1 °F /  17.8 °C 57.3 °F /  14.1 °C 29.76in /  1007.7hPa West 0.2mph /  0.3km/h 13mph /  20.9km/h 78.6% 0.00in /  0mm 0 W/m2
01:39 64 °F /  17.8 °C 57.3 °F /  14.1 °C 29.76in /  1007.7hPa West 0.3mph /  0.5km/h 6mph /  9.7km/h 79% 0.00in /  0mm 0 W/m2
01:44 63.8 °F /  17.7 °C 57.3 °F /  14.1 °C 29.77in /  1008hPa Calm   6mph /  9.7km/h 79.4% 0.00in /  0mm 0 W/m2
01:49 63.6 °F /  17.6 °C 57.4 °F /  14.1 °C 29.77in /  1008hPa Calm   6mph /  9.7km/h 80% 0.00in /  0mm 0 W/m2
01:54 63.5 °F /  17.5 °C 57.2 °F /  14 °C 29.77in /  1008hPa Calm   6mph /  9.7km/h 80% 0.00in /  0mm 0 W/m2
01:59 63.3 °F /  17.4 °C 57.2 °F /  14 °C 29.76in /  1007.7hPa Calm   6mph /  9.7km/h 80.5% 0.00in /  0mm 0 W/m2
02:04 63.2 °F /  17.3 °C 57.2 °F /  14 °C 29.77in /  1008hPa Calm   6mph /  9.7km/h 81% 0.00in /  0mm 0 W/m2
02:09 63 °F /  17.2 °C 57.1 °F /  13.9 °C 29.77in /  1008hPa Calm     81% 0.00in /  0mm 0 W/m2
02:14 62.8 °F /  17.1 °C 57.2 °F /  14 °C 29.77in /  1008hPa Calm     81.9% 0.00in /  0mm 0 W/m2
02:19 62.6 °F /  17 °C 57 °F /  13.9 °C 29.77in /  1008hPa Calm     82% 0.00in /  0mm 0 W/m2
02:24 62.4 °F /  16.9 °C 57.1 °F /  13.9 °C 29.76in /  1007.7hPa Calm     82.6% 0.00in /  0mm 0 W/m2
02:29 62.2 °F /  16.8 °C 57 °F /  13.9 °C 29.77in /  1008hPa Calm     83% 0.00in /  0mm 0 W/m2
02:34 62.1 °F /  16.7 °C 56.9 °F /  13.8 °C 29.77in /  1008hPa Calm   1mph /  1.6km/h 83% 0.00in /  0mm 0 W/m2
02:39 61.9 °F /  16.6 °C 56.7 °F /  13.7 °C 29.77in /  1008hPa West 0.1mph /  0.2km/h 3mph /  4.8km/h 83% 0.00in /  0mm 0 W/m2
02:44 61.8 °F /  16.6 °C 56.9 °F /  13.8 °C 29.77in /  1008hPa West 0.3mph /  0.5km/h 6mph /  9.7km/h 83.8% 0.00in /  0mm 0 W/m2
02:49 61.8 °F /  16.6 °C 56.9 °F /  13.8 °C 29.77in /  1008hPa West 1.1mph /  1.8km/h 8mph /  12.9km/h 84% 0.00in /  0mm 0 W/m2
02:54 61.8 °F /  16.6 °C 56.9 °F /  13.8 °C 29.77in /  1008hPa WNW 0.8mph /  1.3km/h 11mph /  17.7km/h 84% 0.00in /  0mm 0 W/m2
02:59 61.8 °F /  16.6 °C 56.9 °F /  13.8 °C 29.77in /  1008hPa West 1.3mph /  2.1km/h 11mph /  17.7km/h 84% 0.00in /  0mm 0 W/m2
03:04 61.8 °F /  16.6 °C 56.9 °F /  13.8 °C 29.77in /  1008hPa West 0.9mph /  1.4km/h 11mph /  17.7km/h 84% 0.00in /  0mm 0 W/m2
03:09 61.9 °F /  16.6 °C 56.8 °F /  13.8 °C 29.77in /  1008hPa West 0.8mph /  1.3km/h 6mph /  9.7km/h 83.3% 0.00in /  0mm 0 W/m2
03:14 61.9 °F /  16.6 °C 56.7 °F /  13.7 °C 29.77in /  1008hPa West 1.3mph /  2.1km/h 6mph /  9.7km/h 83% 0.00in /  0mm 0 W/m2
03:19 61.9 °F /  16.6 °C 56.7 °F /  13.7 °C 29.77in /  1008hPa West 1.2mph /  1.9km/h 7mph /  11.3km/h 83% 0.00in /  0mm 0 W/m2
03:24 61.9 °F /  16.6 °C 56.7 °F /  13.7 °C 29.77in /  1008hPa West 0.5mph /  0.8km/h 7mph /  11.3km/h 83% 0.00in /  0mm 0 W/m2
03:29 61.9 °F /  16.6 °C 56.7 °F /  13.7 °C 29.77in /  1008hPa West 0.4mph /  0.6km/h 7mph /  11.3km/h 83% 0.00in /  0mm 0 W/m2
03:34 61.9 °F /  16.6 °C 56.7 °F /  13.7 °C 29.77in /  1008hPa West 0.7mph /  1.1km/h 7mph /  11.3km/h 83% 0.00in /  0mm 0 W/m2
03:39 61.8 °F /  16.6 °C 56.6 °F /  13.7 °C 29.77in /  1008hPa West 0.1mph /  0.2km/h 4mph /  6.4km/h 83% 0.00in /  0mm 0 W/m2
03:44 61.8 °F /  16.6 °C 56.3 °F /  13.5 °C 29.77in /  1008hPa West 0.1mph /  0.2km/h 4mph /  6.4km/h 82.2% 0.00in /  0mm 0 W/m2
03:49 61.8 °F /  16.6 °C 56.4 °F /  13.6 °C 29.78in /  1008.4hPa Calm   4mph /  6.4km/h 82.5% 0.00in /  0mm 0 W/m2
03:54 61.7 °F /  16.5 °C 56.5 °F /  13.6 °C 29.78in /  1008.4hPa Calm   4mph /  6.4km/h 83% 0.00in /  0mm 0 W/m2
03:59 61.7 °F /  16.5 °C 56.5 °F /  13.6 °C 29.78in /  1008.4hPa Calm   4mph /  6.4km/h 83% 0.00in /  0mm 0 W/m2
04:09 61.5 °F /  16.4 °C 56.3 °F /  13.5 °C 29.78in /  1008.4hPa Calm     83% 0.00in /  0mm 0 W/m2
04:14 61.4 °F /  16.3 °C 56.2 °F /  13.4 °C 29.78in /  1008.4hPa Calm     83% 0.00in /  0mm 0 W/m2
04:19 61.3 °F /  16.3 °C 56.2 °F /  13.4 °C 29.78in /  1008.4hPa Calm     83.4% 0.00in /  0mm 0 W/m2
04:24 61.2 °F /  16.2 °C 56.2 °F /  13.4 °C 29.78in /  1008.4hPa Calm     83.8% 0.00in /  0mm 0 W/m2
04:29 61 °F /  16.1 °C 56.1 °F /  13.4 °C 29.78in /  1008.4hPa Calm     84% 0.00in /  0mm 0 W/m2
04:34 60.8 °F /  16 °C 56 °F /  13.3 °C 29.78in /  1008.4hPa Calm     84.1% 0.00in /  0mm 0 W/m2
04:39 60.7 °F /  15.9 °C 56.2 °F /  13.4 °C 29.78in /  1008.4hPa Calm     85% 0.00in /  0mm 0 W/m2
04:44 60.6 °F /  15.9 °C 56 °F /  13.3 °C 29.78in /  1008.4hPa West 0.1mph /  0.2km/h 3mph /  4.8km/h 85% 0.00in /  0mm 0 W/m2
04:49 60.4 °F /  15.8 °C 55.9 °F /  13.3 °C 29.78in /  1008.4hPa Calm   3mph /  4.8km/h 85% 0.00in /  0mm 0 W/m2
04:54 60.3 °F /  15.7 °C 55.8 °F /  13.2 °C 29.78in /  1008.4hPa Calm   3mph /  4.8km/h 85% 0.00in /  0mm 0 W/m2
04:59 60.2 °F /  15.7 °C 55.7 °F /  13.2 °C 29.78in /  1008.4hPa Calm   3mph /  4.8km/h 85% 0.00in /  0mm 0 W/m2
05:04 60 °F /  15.6 °C 55.5 °F /  13.1 °C 29.79in /  1008.7hPa Calm   3mph /  4.8km/h 85% 0.00in /  0mm 0 W/m2
05:09 60 °F /  15.6 °C 55.6 °F /  13.1 °C 29.79in /  1008.7hPa Calm   1mph /  1.6km/h 85.4% 0.00in /  0mm 0 W/m2
05:14 59.9 °F /  15.5 °C 55.7 °F /  13.2 °C 29.79in /  1008.7hPa Calm   1mph /  1.6km/h 86% 0.00in /  0mm 0 W/m2
05:19 59.9 °F /  15.5 °C 55.7 °F /  13.2 °C 29.80in /  1009hPa Calm   1mph /  1.6km/h 86% 0.00in /  0mm 0 W/m2
05:24 59.8 °F /  15.4 °C 55.6 °F /  13.1 °C 29.80in /  1009hPa Calm   1mph /  1.6km/h 86% 0.00in /  0mm 0 W/m2
05:29 59.8 °F /  15.4 °C 55.6 °F /  13.1 °C 29.80in /  1009hPa West 0.1mph /  0.2km/h 2mph /  3.2km/h 86% 0.00in /  0mm 0 W/m2
05:34 59.7 °F /  15.4 °C 55.6 °F /  13.1 °C 29.81in /  1009.4hPa Calm   2mph /  3.2km/h 86.3% 0.00in /  0mm 0 W/m2
05:39 59.6 °F /  15.3 °C 55.7 °F /  13.2 °C 29.81in /  1009.4hPa Calm   2mph /  3.2km/h 86.9% 0.00in /  0mm 0 W/m2
05:44 59.5 °F /  15.3 °C 55.6 °F /  13.1 °C 29.81in /  1009.4hPa Calm   2mph /  3.2km/h 87% 0.00in /  0mm 0 W/m2
05:49 59.5 °F /  15.3 °C 55.6 °F /  13.1 °C 29.81in /  1009.4hPa Calm   2mph /  3.2km/h 87% 0.00in /  0mm 0 W/m2
05:54 59.4 °F /  15.2 °C 55.5 °F /  13.1 °C 29.81in /  1009.4hPa Calm   2mph /  3.2km/h 87% 0.00in /  0mm 0 W/m2
05:59 59.3 °F /  15.2 °C 55.4 °F /  13 °C 29.81in /  1009.4hPa Calm   2mph /  3.2km/h 87.1% 0.00in /  0mm 0 W/m2
06:04 59.1 °F /  15.1 °C 55.3 °F /  12.9 °C 29.81in /  1009.4hPa Calm   2mph /  3.2km/h 87.2% 0.00in /  0mm 0 W/m2
06:09 59 °F /  15 °C 55.4 °F /  13 °C 29.81in /  1009.4hPa Calm     87.7% 0.00in /  0mm 0 W/m2
06:14 59 °F /  15 °C 55.4 °F /  13 °C 29.81in /  1009.4hPa Calm     88% 0.00in /  0mm 0 W/m2
06:19 58.9 °F /  14.9 °C 55.4 °F /  13 °C 29.81in /  1009.4hPa Calm     88% 0.00in /  0mm 0 W/m2
06:24 58.8 °F /  14.9 °C 55.4 °F /  13 °C 29.81in /  1009.4hPa Calm   1mph /  1.6km/h 88.4% 0.00in /  0mm 0 W/m2
06:29 58.7 °F /  14.8 °C 55.5 °F /  13.1 °C 29.81in /  1009.4hPa Calm   1mph /  1.6km/h 89% 0.00in /  0mm 0 W/m2
06:34 58.7 °F /  14.8 °C 55.4 °F /  13 °C 29.81in /  1009.4hPa Calm   1mph /  1.6km/h 89% 0.00in /  0mm 5 W/m2
06:39 58.6 °F /  14.8 °C 55.4 °F /  13 °C 29.82in /  1009.7hPa Calm     89% 0.00in /  0mm 5 W/m2
06:44 58.5 °F /  14.7 °C 55.3 °F /  12.9 °C 29.82in /  1009.7hPa Calm     89% 0.00in /  0mm 7 W/m2
06:49 58.5 °F /  14.7 °C 55.3 °F /  12.9 °C 29.82in /  1009.7hPa Calm     89% 0.00in /  0mm 9 W/m2
06:54 58.4 °F /  14.7 °C 55.3 °F /  12.9 °C 29.82in /  1009.7hPa Calm     89.6% 0.00in /  0mm 12 W/m2
06:59 58.4 °F /  14.7 °C 55.5 °F /  13.1 °C 29.82in /  1009.7hPa Calm     90% 0.00in /  0mm 12 W/m2
07:04 58.5 °F /  14.7 °C 55.5 °F /  13.1 °C 29.83in /  1010hPa Calm     90% 0.00in /  0mm 14 W/m2
07:09 58.5 °F /  14.7 °C 55.6 °F /  13.1 °C 29.83in /  1010hPa Calm     90% 0.00in /  0mm 16 W/m2
07:14 58.5 °F /  14.7 °C 55.6 °F /  13.1 °C 29.83in /  1010hPa Calm     90% 0.00in /  0mm 16 W/m2
07:19 58.6 °F /  14.8 °C 55.7 °F /  13.2 °C 29.83in /  1010hPa Calm     90% 0.00in /  0mm 18 W/m2
07:24 58.6 °F /  14.8 °C 55.9 °F /  13.3 °C 29.83in /  1010hPa Calm     90.6% 0.00in /  0mm 19 W/m2
07:29 58.7 °F /  14.8 °C 56.1 °F /  13.4 °C 29.83in /  1010hPa Calm     91% 0.00in /  0mm 19 W/m2
07:34 58.8 °F /  14.9 °C 56.2 °F /  13.4 °C 29.83in /  1010hPa Calm     91% 0.00in /  0mm 21 W/m2
07:39 59 °F /  15 °C 56.3 °F /  13.5 °C 29.84in /  1010.4hPa Calm     91% 0.00in /  0mm 23 W/m2
07:44 59.1 °F /  15.1 °C 56.5 °F /  13.6 °C 29.84in /  1010.4hPa Calm     91% 0.00in /  0mm 23 W/m2
07:49 59.2 °F /  15.1 °C 56.6 °F /  13.7 °C 29.84in /  1010.4hPa Calm     91% 0.00in /  0mm 25 W/m2
07:54 59.3 °F /  15.2 °C 56.7 °F /  13.7 °C 29.84in /  1010.4hPa Calm     91% 0.00in /  0mm 26 W/m2
07:59 59.4 °F /  15.2 °C 56.8 °F /  13.8 °C 29.84in /  1010.4hPa Calm     91% 0.00in /  0mm 30 W/m2
08:09 59.9 °F /  15.5 °C 56.9 °F /  13.8 °C 29.84in /  1010.4hPa Calm     90% 0.00in /  0mm 37 W/m2
08:14 60.1 °F /  15.6 °C 57 °F /  13.9 °C 29.85in /  1010.7hPa Calm     89.5% 0.00in /  0mm 42 W/m2
08:19 60.4 °F /  15.8 °C 57 °F /  13.9 °C 29.84in /  1010.4hPa Calm     88.5% 0.00in /  0mm 46 W/m2
08:24 60.7 °F /  15.9 °C 57.1 °F /  13.9 °C 29.84in /  1010.4hPa Calm     87.8% 0.00in /  0mm 58 W/m2
08:29 61.1 °F /  16.2 °C 57.2 °F /  14 °C 29.85in /  1010.7hPa Calm     86.9% 0.00in /  0mm 69 W/m2
08:34 61.5 °F /  16.4 °C 57.2 °F /  14 °C 29.85in /  1010.7hPa Calm     85.8% 0.00in /  0mm 83 W/m2
08:39 62 °F /  16.7 °C 57.4 °F /  14.1 °C 29.84in /  1010.4hPa Calm     85% 0.00in /  0mm 86 W/m2
08:44 62.4 °F /  16.9 °C 57.6 °F /  14.2 °C 29.85in /  1010.7hPa Calm     84.2% 0.00in /  0mm 102 W/m2
08:49 62.9 °F /  17.2 °C 57.8 °F /  14.3 °C 29.84in /  1010.4hPa Calm     83.2% 0.00in /  0mm 432 W/m2
08:54 63.5 °F /  17.5 °C 58.2 °F /  14.6 °C 29.84in /  1010.4hPa Calm     83% 0.00in /  0mm 446 W/m2
08:59 64.5 °F /  18.1 °C 59.1 °F /  15.1 °C 29.85in /  1010.7hPa Calm     82.7% 0.00in /  0mm 461 W/m2
09:04 65.8 °F /  18.8 °C 59.4 °F /  15.2 °C 29.85in /  1010.7hPa Calm     80% 0.00in /  0mm 480 W/m2
09:09 67 °F /  19.4 °C 59.7 °F /  15.4 °C 29.85in /  1010.7hPa Calm     77.2% 0.00in /  0mm 490 W/m2
09:14 68.2 °F /  20.1 °C 60.1 °F /  15.6 °C 29.85in /  1010.7hPa Calm     75.5% 0.00in /  0mm 506 W/m2
09:19 69.4 °F /  20.8 °C 60.3 °F /  15.7 °C 29.85in /  1010.7hPa Calm   1mph /  1.6km/h 73% 0.00in /  0mm 524 W/m2
09:24 70.5 °F /  21.4 °C 60.6 °F /  15.9 °C 29.85in /  1010.7hPa West 0.5mph /  0.8km/h 4mph /  6.4km/h 70.9% 0.00in /  0mm 534 W/m2
09:29 71.3 °F /  21.8 °C 60.6 °F /  15.9 °C 29.85in /  1010.7hPa Calm   4mph /  6.4km/h 68.9% 0.00in /  0mm 547 W/m2
09:34 72.1 °F /  22.3 °C 60.7 °F /  15.9 °C 29.85in /  1010.7hPa Calm   4mph /  6.4km/h 67.4% 0.00in /  0mm 559 W/m2
09:39 72.9 °F /  22.7 °C 61.2 °F /  16.2 °C 29.86in /  1011.1hPa Calm   1mph /  1.6km/h 66.9% 0.00in /  0mm 573 W/m2
09:44 73.6 °F /  23.1 °C 61.3 °F /  16.3 °C 29.86in /  1011.1hPa West 0.1mph /  0.2km/h 3mph /  4.8km/h 65.4% 0.00in /  0mm 585 W/m2
09:49 74.2 °F /  23.4 °C 61.6 °F /  16.4 °C 29.86in /  1011.1hPa West 1mph /  1.6km/h 4mph /  6.4km/h 64.9% 0.00in /  0mm 598 W/m2
09:54 74.7 °F /  23.7 °C 61.3 °F /  16.3 °C 29.86in /  1011.1hPa WNW 1.2mph /  1.9km/h 7mph /  11.3km/h 62.9% 0.00in /  0mm 608 W/m2
09:59 75.1 °F /  23.9 °C 61.5 °F /  16.4 °C 29.86in /  1011.1hPa NW 1.3mph /  2.1km/h 9mph /  14.5km/h 62.7% 0.00in /  0mm 621 W/m2
10:04 75.1 °F /  23.9 °C 61 °F /  16.1 °C 29.86in /  1011.1hPa NW 0.7mph /  1.1km/h 9mph /  14.5km/h 61.5% 0.00in /  0mm 631 W/m2
10:09 75.2 °F /  24 °C 61.1 °F /  16.2 °C 29.86in /  1011.1hPa WSW 1.3mph /  2.1km/h 10mph /  16.1km/h 61.7% 0.00in /  0mm 643 W/m2
10:14 75.3 °F /  24.1 °C 61.2 °F /  16.2 °C 29.86in /  1011.1hPa SW 0.1mph /  0.2km/h 10mph /  16.1km/h 61.6% 0.00in /  0mm 652 W/m2
10:19 75.4 °F /  24.1 °C 61.9 °F /  16.6 °C 29.86in /  1011.1hPa Calm   10mph /  16.1km/h 62.8% 0.00in /  0mm 661 W/m2
10:24 75.8 °F /  24.3 °C 62.1 °F /  16.7 °C 29.86in /  1011.1hPa WSW 1.3mph /  2.1km/h 10mph /  16.1km/h 62.7% 0.00in /  0mm 671 W/m2
10:29 76.1 °F /  24.5 °C 61.9 °F /  16.6 °C 29.86in /  1011.1hPa WNW 1.3mph /  2.1km/h 10mph /  16.1km/h 61.5% 0.00in /  0mm 680 W/m2
10:34 76.4 °F /  24.7 °C 62.2 °F /  16.8 °C 29.86in /  1011.1hPa West 1.1mph /  1.8km/h 10mph /  16.1km/h 61.5% 0.00in /  0mm 689 W/m2
10:39 76.6 °F /  24.8 °C 61.8 °F /  16.6 °C 29.87in /  1011.4hPa WNW 1.9mph /  3.1km/h 13mph /  20.9km/h 60.3% 0.00in /  0mm 703 W/m2
10:44 76.7 °F /  24.8 °C 61.1 °F /  16.2 °C 29.87in /  1011.4hPa West 4mph /  6.4km/h 16mph /  25.7km/h 58.7% 0.00in /  0mm 712 W/m2
10:49 76.5 °F /  24.7 °C 61 °F /  16.1 °C 29.87in /  1011.4hPa West 3.2mph /  5.1km/h 16mph /  25.7km/h 58.7% 0.00in /  0mm 721 W/m2
10:54 76.4 °F /  24.7 °C 60.9 °F /  16.1 °C 29.87in /  1011.4hPa West 4mph /  6.4km/h 16mph /  25.7km/h 58.7% 0.00in /  0mm 728 W/m2
10:59 76.5 °F /  24.7 °C 61 °F /  16.1 °C 29.87in /  1011.4hPa West 1.6mph /  2.6km/h 16mph /  25.7km/h 58.9% 0.00in /  0mm 737 W/m2
11:04 76.6 °F /  24.8 °C 61.1 °F /  16.2 °C 29.87in /  1011.4hPa WNW 2.9mph /  4.7km/h 16mph /  25.7km/h 58.6% 0.00in /  0mm 747 W/m2
11:09 76.9 °F /  24.9 °C 61.2 °F /  16.2 °C 29.87in /  1011.4hPa West 4.4mph /  7.1km/h 12mph /  19.3km/h 58.5% 0.00in /  0mm 754 W/m2
11:14 77 °F /  25 °C 61.5 °F /  16.4 °C 29.87in /  1011.4hPa West 3.7mph /  6km/h 12mph /  19.3km/h 58.9% 0.00in /  0mm 763 W/m2
11:19 77.1 °F /  25.1 °C 61.4 °F /  16.3 °C 29.87in /  1011.4hPa WNW 4mph /  6.4km/h 12mph /  19.3km/h 58.5% 0.00in /  0mm 772 W/m2
11:24 77.1 °F /  25.1 °C 61.3 °F /  16.3 °C 29.87in /  1011.4hPa WNW 2.8mph /  4.5km/h 12mph /  19.3km/h 58.2% 0.00in /  0mm 773 W/m2
11:29 77.3 °F /  25.2 °C 61.9 °F /  16.6 °C 29.87in /  1011.4hPa West 3.1mph /  5km/h 15mph /  24.1km/h 59.1% 0.00in /  0mm 782 W/m2
11:34 77.4 °F /  25.2 °C 61 °F /  16.1 °C 29.87in /  1011.4hPa WNW 3.2mph /  5.1km/h 15mph /  24.1km/h 56.9% 0.00in /  0mm 777 W/m2
11:39 77.3 °F /  25.2 °C 61.5 °F /  16.4 °C 29.87in /  1011.4hPa WNW 3.3mph /  5.3km/h 13mph /  20.9km/h 58.2% 0.00in /  0mm 283 W/m2
11:44 77.1 °F /  25.1 °C 61 °F /  16.1 °C 29.87in /  1011.4hPa West 3.7mph /  6km/h 13mph /  20.9km/h 57.7% 0.00in /  0mm 283 W/m2
11:49 76.7 °F /  24.8 °C 61.5 °F /  16.4 °C 29.87in /  1011.4hPa West 2mph /  3.2km/h 13mph /  20.9km/h 59.3% 0.00in /  0mm 125 W/m2
11:54 76.5 °F /  24.7 °C 61.5 °F /  16.4 °C 29.87in /  1011.4hPa WNW 3.7mph /  6km/h 13mph /  20.9km/h 59.8% 0.00in /  0mm 116 W/m2
11:59 76.3 °F /  24.6 °C 61.5 °F /  16.4 °C 29.87in /  1011.4hPa WNW 1.6mph /  2.6km/h 13mph /  20.9km/h 60% 0.00in /  0mm 160 W/m2
12:00 76.3 °F /  24.6 °C 61.4 °F /  16.3 °C 29.87in /  1011.4hPa WNW 4mph /  6.4km/h 13mph /  20.9km/h 60% 0.00in /  0mm 128 W/m2
12:09 76.1 °F /  24.5 °C 61.6 °F /  16.4 °C 29.87in /  1011.4hPa WNW 3mph /  4.8km/h 11mph /  17.7km/h 60.8% 0.00in /  0mm 209 W/m2
12:14 75.9 °F /  24.4 °C 60.8 °F /  16 °C 29.87in /  1011.4hPa WNW 5mph /  8km/h 16mph /  25.7km/h 59.6% 0.00in /  0mm 183 W/m2
12:19 75.5 °F /  24.2 °C 60.9 °F /  16.1 °C 29.87in /  1011.4hPa West 1mph /  1.6km/h 16mph /  25.7km/h 60.5% 0.00in /  0mm 141 W/m2
12:24 75.4 °F /  24.1 °C 61.4 °F /  16.3 °C 29.87in /  1011.4hPa WSW 1.1mph /  1.8km/h 16mph /  25.7km/h 61.8% 0.00in /  0mm 213 W/m2
12:29 75.5 °F /  24.2 °C 61.6 °F /  16.4 °C 29.87in /  1011.4hPa SSW 0.1mph /  0.2km/h 16mph /  25.7km/h 62% 0.00in /  0mm 214 W/m2
12:34 75.8 °F /  24.3 °C 61.4 °F /  16.3 °C 29.87in /  1011.4hPa WNW 3.8mph /  6.1km/h 17mph /  27.4km/h 61.1% 0.00in /  0mm 214 W/m2
12:39 75.7 °F /  24.3 °C 61.2 °F /  16.2 °C 29.87in /  1011.4hPa NW 4.2mph /  6.8km/h 17mph /  27.4km/h 60.7% 0.00in /  0mm 171 W/m2
12:44 75.7 °F /  24.3 °C 61.3 °F /  16.3 °C 29.87in /  1011.4hPa NW 5.6mph /  9km/h 17mph /  27.4km/h 60.9% 0.00in /  0mm 174 W/m2
12:49 75.8 °F /  24.3 °C 61.6 °F /  16.4 °C 29.87in /  1011.4hPa WNW 5.5mph /  8.9km/h 17mph /  27.4km/h 61.4% 0.00in /  0mm 206 W/m2
12:54 75.9 °F /  24.4 °C 61.1 °F /  16.2 °C 29.87in /  1011.4hPa West 5.9mph /  9.5km/h 17mph /  27.4km/h 60.1% 0.00in /  0mm 359 W/m2
12:59 75.9 °F /  24.4 °C 61.5 °F /  16.4 °C 29.87in /  1011.4hPa West 6.3mph /  10.1km/h 17mph /  27.4km/h 61.1% 0.00in /  0mm 348 W/m2
13:04 76.1 °F /  24.5 °C 61.8 °F /  16.6 °C 29.87in /  1011.4hPa WNW 5.6mph /  9km/h 17mph /  27.4km/h 61.2% 0.00in /  0mm 195 W/m2
13:09 76.3 °F /  24.6 °C 61.5 °F /  16.4 °C 29.87in /  1011.4hPa WNW 8.7mph /  14km/h 19mph /  30.6km/h 60.3% 0.00in /  0mm 241 W/m2
13:14 76.4 °F /  24.7 °C 62 °F /  16.7 °C 29.88in /  1011.7hPa NW 4.4mph /  7.1km/h 19mph /  30.6km/h 61.1% 0.00in /  0mm 262 W/m2
13:19 76.4 °F /  24.7 °C 61.9 °F /  16.6 °C 29.88in /  1011.7hPa NW 7mph /  11.3km/h 19mph /  30.6km/h 61% 0.00in /  0mm 302 W/m2
13:24 76.2 °F /  24.6 °C 62.1 °F /  16.7 °C 29.88in /  1011.7hPa WNW 3mph /  4.8km/h 19mph /  30.6km/h 61.8% 0.00in /  0mm 318 W/m2
13:29 76.3 °F /  24.6 °C 62.2 °F /  16.8 °C 29.88in /  1011.7hPa WNW 6mph /  9.7km/h 19mph /  30.6km/h 61.9% 0.00in /  0mm 350 W/m2
13:34 76.1 °F /  24.5 °C 61.7 °F /  16.5 °C 29.88in /  1011.7hPa WNW 3.9mph /  6.3km/h 19mph /  30.6km/h 61% 0.00in /  0mm 225 W/m2
13:39 75.9 °F /  24.4 °C 61.6 °F /  16.4 °C 29.88in /  1011.7hPa WNW 2.8mph /  4.5km/h 13mph /  20.9km/h 61.2% 0.00in /  0mm 107 W/m2
13:44 75.9 °F /  24.4 °C 61.9 °F /  16.6 °C 29.87in /  1011.4hPa NW 0.7mph /  1.1km/h 13mph /  20.9km/h 62% 0.00in /  0mm 127 W/m2
13:49 76.1 °F /  24.5 °C 62.8 °F /  17.1 °C 29.88in /  1011.7hPa WNW 3.6mph /  5.8km/h 13mph /  20.9km/h 63.3% 0.00in /  0mm 104 W/m2
13:54 76.5 °F /  24.7 °C 63.1 °F /  17.3 °C 29.88in /  1011.7hPa WNW 2.9mph /  4.7km/h 13mph /  20.9km/h 63.4% 0.00in /  0mm 227 W/m2
13:59 76.7 °F /  24.8 °C 62.5 °F /  16.9 °C 29.88in /  1011.7hPa West 4.6mph /  7.4km/h 14mph /  22.5km/h 61.4% 0.00in /  0mm 283 W/m2
14:04 76.7 °F /  24.8 °C 62.3 °F /  16.8 °C 29.88in /  1011.7hPa West 2.4mph /  3.9km/h 14mph /  22.5km/h 61% 0.00in /  0mm 221 W/m2
14:09 76.6 °F /  24.8 °C 62.3 °F /  16.8 °C 29.88in /  1011.7hPa West 2.9mph /  4.7km/h 10mph /  16.1km/h 61.4% 0.00in /  0mm 267 W/m2
14:14 76.3 °F /  24.6 °C 62.1 °F /  16.7 °C 29.88in /  1011.7hPa West 1.2mph /  1.9km/h 10mph /  16.1km/h 61.4% 0.00in /  0mm 207 W/m2
14:19 76.3 °F /  24.6 °C 62.8 °F /  17.1 °C 29.88in /  1011.7hPa WNW 2.9mph /  4.7km/h 12mph /  19.3km/h 63.2% 0.00in /  0mm 206 W/m2
14:24 76.5 °F /  24.7 °C 62.8 °F /  17.1 °C 29.88in /  1011.7hPa WNW 4.6mph /  7.4km/h 14mph /  22.5km/h 62.8% 0.00in /  0mm 788 W/m2
14:29 76.8 °F /  24.9 °C 62.6 °F /  17 °C 29.88in /  1011.7hPa NW 2.6mph /  4.2km/h 14mph /  22.5km/h 61.6% 0.00in /  0mm 309 W/m2
14:34 76.9 °F /  24.9 °C 62.7 °F /  17.1 °C 29.88in /  1011.7hPa WNW 2.6mph /  4.2km/h 14mph /  22.5km/h 61.4% 0.00in /  0mm 294 W/m2
14:39 77 °F /  25 °C 62.3 °F /  16.8 °C 29.88in /  1011.7hPa WNW 3.9mph /  6.3km/h 12mph /  19.3km/h 60.6% 0.00in /  0mm 190 W/m2
14:44 76.9 °F /  24.9 °C 62.1 °F /  16.7 °C 29.88in /  1011.7hPa West 2.8mph /  4.5km/h 12mph /  19.3km/h 60.3% 0.00in /  0mm 142 W/m2
14:49 76.7 °F /  24.8 °C 62.2 °F /  16.8 °C 29.88in /  1011.7hPa WNW 3mph /  4.8km/h 12mph /  19.3km/h 60.8% 0.00in /  0mm 700 W/m2
14:54 77 °F /  25 °C 62.4 °F /  16.9 °C 29.88in /  1011.7hPa WNW 4.3mph /  6.9km/h 16mph /  25.7km/h 60.8% 0.00in /  0mm 431 W/m2
14:59 77.2 °F /  25.1 °C 61.9 °F /  16.6 °C 29.88in /  1011.7hPa WNW 3.6mph /  5.8km/h 16mph /  25.7km/h 59.1% 0.00in /  0mm 656 W/m2
15:04 77.4 °F /  25.2 °C 62.1 °F /  16.7 °C 29.88in /  1011.7hPa WNW 6.7mph /  10.8km/h 16mph /  25.7km/h 59.2% 0.00in /  0mm 654 W/m2
15:09 77.5 °F /  25.3 °C 61.7 °F /  16.5 °C 29.88in /  1011.7hPa West 5.4mph /  8.7km/h 16mph /  25.7km/h 58.3% 0.00in /  0mm 550 W/m2
15:14 77.5 °F /  25.3 °C 62 °F /  16.7 °C 29.88in /  1011.7hPa West 3.2mph /  5.1km/h 16mph /  25.7km/h 59% 0.00in /  0mm 439 W/m2
15:19 77.5 °F /  25.3 °C 62 °F /  16.7 °C 29.88in /  1011.7hPa WNW 3mph /  4.8km/h 16mph /  25.7km/h 58.9% 0.00in /  0mm 628 W/m2
15:24 77.7 °F /  25.4 °C 61.8 °F /  16.6 °C 29.88in /  1011.7hPa WNW 2.8mph /  4.5km/h 16mph /  25.7km/h 58.1% 0.00in /  0mm 628 W/m2
15:29 77.7 °F /  25.4 °C 61.2 °F /  16.2 °C 29.87in /  1011.4hPa West 4.4mph /  7.1km/h 16mph /  25.7km/h 56.9% 0.00in /  0mm 617 W/m2
15:34 77.6 °F /  25.3 °C 61.7 °F /  16.5 °C 29.88in /  1011.7hPa WNW 2.9mph /  4.7km/h 16mph /  25.7km/h 58% 0.00in /  0mm 617 W/m2
15:39 77.5 °F /  25.3 °C 61.1 °F /  16.2 °C 29.88in /  1011.7hPa NW 2.1mph /  3.4km/h 12mph /  19.3km/h 57% 0.00in /  0mm 77 W/m2
15:44 77.1 °F /  25.1 °C 60.8 °F /  16 °C 29.87in /  1011.4hPa WNW 5mph /  8km/h 12mph /  19.3km/h 57.1% 0.00in /  0mm 578 W/m2
15:49 76.9 °F /  24.9 °C 60.8 °F /  16 °C 29.87in /  1011.4hPa WNW 4.2mph /  6.8km/h 12mph /  19.3km/h 57.7% 0.00in /  0mm 564 W/m2
15:54 77 °F /  25 °C 60.6 °F /  15.9 °C 29.87in /  1011.4hPa WNW 5.5mph /  8.9km/h 15mph /  24.1km/h 57% 0.00in /  0mm 557 W/m2
15:59 77.2 °F /  25.1 °C 60.4 °F /  15.8 °C 29.87in /  1011.4hPa WNW 4.6mph /  7.4km/h 15mph /  24.1km/h 56.2% 0.00in /  0mm 72 W/m2
16:00 77.3 °F /  25.2 °C 60.9 °F /  16.1 °C 29.87in /  1011.4hPa Calm   15mph /  24.1km/h 57% 0.00in /  0mm 69 W/m2
16:09 77.7 °F /  25.4 °C 60.7 °F /  15.9 °C 29.87in /  1011.4hPa WNW 6.6mph /  10.6km/h 14mph /  22.5km/h 55.8% 0.00in /  0mm 90 W/m2
16:14 77.8 °F /  25.4 °C 60.7 °F /  15.9 °C 29.87in /  1011.4hPa WNW 5.3mph /  8.5km/h 15mph /  24.1km/h 55.6% 0.00in /  0mm 76 W/m2
16:19 77.9 °F /  25.5 °C 61 °F /  16.1 °C 29.87in /  1011.4hPa WNW 2.3mph /  3.7km/h 15mph /  24.1km/h 56.1% 0.00in /  0mm 69 W/m2
16:24 77.9 °F /  25.5 °C 61.3 °F /  16.3 °C 29.87in /  1011.4hPa WNW 3.6mph /  5.8km/h 15mph /  24.1km/h 56.8% 0.00in /  0mm 60 W/m2
16:29 77.9 °F /  25.5 °C 61.1 °F /  16.2 °C 29.87in /  1011.4hPa West 2.7mph /  4.3km/h 15mph /  24.1km/h 56.2% 0.00in /  0mm 63 W/m2
16:34 77.9 °F /  25.5 °C 61.5 °F /  16.4 °C 29.87in /  1011.4hPa NW 1.2mph /  1.9km/h 15mph /  24.1km/h 57% 0.00in /  0mm 63 W/m2
16:39 78 °F /  25.6 °C 61.8 °F /  16.6 °C 29.87in /  1011.4hPa NW 2.2mph /  3.5km/h 9mph /  14.5km/h 57.6% 0.00in /  0mm 69 W/m2
16:44 77.9 °F /  25.5 °C 61.5 °F /  16.4 °C 29.87in /  1011.4hPa NW 3.5mph /  5.6km/h 13mph /  20.9km/h 57% 0.00in /  0mm 69 W/m2
16:49 77.7 °F /  25.4 °C 61.4 °F /  16.3 °C 29.87in /  1011.4hPa WNW 1.2mph /  1.9km/h 13mph /  20.9km/h 57.2% 0.00in /  0mm 53 W/m2
16:54 77.7 °F /  25.4 °C 61.4 °F /  16.3 °C 29.88in /  1011.7hPa NW 2.2mph /  3.5km/h 13mph /  20.9km/h 57.4% 0.00in /  0mm 51 W/m2
16:59 77.6 °F /  25.3 °C 61.1 °F /  16.2 °C 29.88in /  1011.7hPa WNW 2.4mph /  3.9km/h 13mph /  20.9km/h 57% 0.00in /  0mm 56 W/m2
17:04 77.4 °F /  25.2 °C 60.5 °F /  15.8 °C 29.88in /  1011.7hPa NW 2.5mph /  4km/h 13mph /  20.9km/h 56.1% 0.00in /  0mm 56 W/m2
17:09 77.3 °F /  25.2 °C 60.5 °F /  15.8 °C 29.88in /  1011.7hPa WNW 2.9mph /  4.7km/h 10mph /  16.1km/h 56.3% 0.00in /  0mm 53 W/m2
17:14 77.2 °F /  25.1 °C 60.7 °F /  15.9 °C 29.88in /  1011.7hPa WNW 1.6mph /  2.6km/h 11mph /  17.7km/h 56.8% 0.00in /  0mm 51 W/m2
17:19 77 °F /  25 °C 60.6 °F /  15.9 °C 29.88in /  1011.7hPa WNW 2.2mph /  3.5km/h 11mph /  17.7km/h 57% 0.00in /  0mm 49 W/m2
17:24 76.8 °F /  24.9 °C 60.9 °F /  16.1 °C 29.88in /  1011.7hPa WNW 1.4mph /  2.3km/h 11mph /  17.7km/h 58% 0.00in /  0mm 47 W/m2
17:29 76.7 °F /  24.8 °C 61 °F /  16.1 °C 29.88in /  1011.7hPa WNW 0.5mph /  0.8km/h 11mph /  17.7km/h 58.5% 0.00in /  0mm 46 W/m2
17:34 76.6 °F /  24.8 °C 61.2 °F /  16.2 °C 29.88in /  1011.7hPa WNW 0.4mph /  0.6km/h 11mph /  17.7km/h 59% 0.00in /  0mm 44 W/m2
17:39 76.6 °F /  24.8 °C 61.3 °F /  16.3 °C 29.88in /  1011.7hPa WNW 0.7mph /  1.1km/h 4mph /  6.4km/h 59.2% 0.00in /  0mm 44 W/m2
17:44 76.4 °F /  24.7 °C 61.1 °F /  16.2 °C 29.88in /  1011.7hPa WNW 0.5mph /  0.8km/h 4mph /  6.4km/h 59% 0.00in /  0mm 42 W/m2
17:49 76.3 °F /  24.6 °C 61.3 °F /  16.3 °C 29.88in /  1011.7hPa WNW 0.5mph /  0.8km/h 4mph /  6.4km/h 59.7% 0.00in /  0mm 40 W/m2
17:54 76.2 °F /  24.6 °C 61.3 °F /  16.3 °C 29.88in /  1011.7hPa Calm   4mph /  6.4km/h 60% 0.00in /  0mm 39 W/m2
17:59 76.2 °F /  24.6 °C 61.4 °F /  16.3 °C 29.89in /  1012.1hPa WNW 0.1mph /  0.2km/h 4mph /  6.4km/h 60.3% 0.00in /  0mm 37 W/m2
18:04 76 °F /  24.4 °C 61.2 °F /  16.2 °C 29.88in /  1011.7hPa Calm   4mph /  6.4km/h 60% 0.00in /  0mm 33 W/m2
18:09 76 °F /  24.4 °C 61.5 °F /  16.4 °C 29.88in /  1011.7hPa Calm     60.8% 0.00in /  0mm 32 W/m2
18:14 75.9 °F /  24.4 °C 61.6 °F /  16.4 °C 29.88in /  1011.7hPa Calm   1mph /  1.6km/h 61.2% 0.00in /  0mm 30 W/m2
18:16 75.8 °F /  24.3 °C 61.4 °F /  16.3 °C 29.88in /  1011.7hPa Calm   1mph /  1.6km/h 61% 0.00in /  0mm 26 W/m2
18:24 75.6 °F /  24.2 °C 61.7 °F /  16.5 °C 29.88in /  1011.7hPa Calm   1mph /  1.6km/h 62% 0.00in /  0mm 23 W/m2
18:29 75.5 °F /  24.2 °C 61.3 °F /  16.3 °C 29.88in /  1011.7hPa Calm   1mph /  1.6km/h 61.4% 0.00in /  0mm 21 W/m2
18:34 75.3 °F /  24.1 °C 61.5 °F /  16.4 °C 29.88in /  1011.7hPa Calm   1mph /  1.6km/h 62.3% 0.00in /  0mm 18 W/m2
18:39 75.1 °F /  23.9 °C 61.8 °F /  16.6 °C 29.89in /  1012.1hPa Calm     63.2% 0.00in /  0mm 14 W/m2
18:44 74.9 °F /  23.8 °C 62.1 °F /  16.7 °C 29.89in /  1012.1hPa Calm     64.3% 0.00in /  0mm 12 W/m2
18:49 74.7 °F /  23.7 °C 62.2 °F /  16.8 °C 29.89in /  1012.1hPa Calm     65% 0.00in /  0mm 9 W/m2
18:54 74.4 °F /  23.6 °C 61.9 °F /  16.6 °C 29.89in /  1012.1hPa Calm     65% 0.00in /  0mm 7 W/m2
18:59 74.1 °F /  23.4 °C 61.6 °F /  16.4 °C 29.89in /  1012.1hPa Calm     65% 0.00in /  0mm 0 W/m2
19:04 73.7 °F /  23.2 °C 61.5 °F /  16.4 °C 29.89in /  1012.1hPa Calm     65.5% 0.00in /  0mm 0 W/m2
19:09 73.4 °F /  23 °C 61.4 °F /  16.3 °C 29.89in /  1012.1hPa Calm     66% 0.00in /  0mm 0 W/m2
19:14 73.1 °F /  22.8 °C 61.7 °F /  16.5 °C 29.89in /  1012.1hPa Calm     67.4% 0.00in /  0mm 0 W/m2
19:19 72.9 °F /  22.7 °C 61.7 °F /  16.5 °C 29.89in /  1012.1hPa Calm     68% 0.00in /  0mm 0 W/m2
19:24 72.6 °F /  22.6 °C 61.7 °F /  16.5 °C 29.89in /  1012.1hPa Calm     68.7% 0.00in /  0mm 0 W/m2
19:29 72.3 °F /  22.4 °C 61.6 °F /  16.4 °C 29.89in /  1012.1hPa Calm     69.1% 0.00in /  0mm 0 W/m2
19:34 71.9 °F /  22.2 °C 61.5 °F /  16.4 °C 29.89in /  1012.1hPa Calm     69.6% 0.00in /  0mm 0 W/m2
19:39 71.6 °F /  22 °C 61.5 °F /  16.4 °C 29.90in /  1012.4hPa Calm     70.5% 0.00in /  0mm 0 W/m2
19:44 71.3 °F /  21.8 °C 61.6 °F /  16.4 °C 29.90in /  1012.4hPa Calm     71.5% 0.00in /  0mm 0 W/m2
19:49 71 °F /  21.7 °C 61.7 °F /  16.5 °C 29.90in /  1012.4hPa Calm     72.5% 0.00in /  0mm 0 W/m2
19:54 70.7 °F /  21.5 °C 61.6 °F /  16.4 °C 29.90in /  1012.4hPa Calm     73.1% 0.00in /  0mm 0 W/m2
19:59 70.4 °F /  21.3 °C 61.7 °F /  16.5 °C 29.90in /  1012.4hPa Calm     73.8% 0.00in /  0mm 0 W/m2
20:00 70.3 °F /  21.3 °C 61.6 °F /  16.4 °C 29.90in /  1012.4hPa Calm     74% 0.00in /  0mm 0 W/m2
20:09 69.8 °F /  21 °C 61.5 °F /  16.4 °C 29.90in /  1012.4hPa Calm     75% 0.00in /  0mm 0 W/m2
20:14 69.4 °F /  20.8 °C 61.4 °F /  16.3 °C 29.90in /  1012.4hPa Calm     75.7% 0.00in /  0mm 0 W/m2
20:19 69.2 °F /  20.7 °C 61.5 °F /  16.4 °C 29.91in /  1012.8hPa Calm     76.6% 0.00in /  0mm 0 W/m2
20:24 68.9 °F /  20.5 °C 61.4 °F /  16.3 °C 29.91in /  1012.8hPa Calm     77% 0.00in /  0mm 0 W/m2
20:29 68.6 °F /  20.3 °C 61.3 °F /  16.3 °C 29.91in /  1012.8hPa Calm     77.6% 0.00in /  0mm 0 W/m2
20:34 68.4 °F /  20.2 °C 61.3 °F /  16.3 °C 29.91in /  1012.8hPa Calm     78% 0.00in /  0mm 0 W/m2
20:39 68.2 °F /  20.1 °C 61.1 °F /  16.2 °C 29.91in /  1012.8hPa Calm     78% 0.00in /  0mm 0 W/m2
20:44 68 °F /  20 °C 61.2 °F /  16.2 °C 29.91in /  1012.8hPa Calm     78.9% 0.00in /  0mm 0 W/m2
20:49 67.9 °F /  19.9 °C 61.1 °F /  16.2 °C 29.91in /  1012.8hPa Calm     79% 0.00in /  0mm 0 W/m2
20:54 67.7 °F /  19.8 °C 61 °F /  16.1 °C 29.92in /  1013.1hPa Calm     79% 0.00in /  0mm 0 W/m2
20:59 67.6 °F /  19.8 °C 60.9 °F /  16.1 °C 29.92in /  1013.1hPa Calm     79% 0.00in /  0mm 0 W/m2
21:01 67.5 °F /  19.7 °C 60.8 °F /  16 °C 29.92in /  1013.1hPa Calm     79.1% 0.00in /  0mm 0 W/m2
21:30 66.9 °F /  19.4 °C 60.5 °F /  15.8 °C 29.92in /  1013.1hPa Calm     80% 0.00in /  0mm 0 W/m2
22:00 66.5 °F /  19.2 °C 60.8 °F /  16 °C 29.93in /  1013.4hPa Calm     82% 0.00in /  0mm 0 W/m2
22:30 65.7 °F /  18.7 °C 60.4 °F /  15.8 °C 29.93in /  1013.4hPa Calm     83% 0.00in /  0mm 0 W/m2
23:00 65.1 °F /  18.4 °C 60.5 °F /  15.8 °C 29.94in /  1013.8hPa Calm     85% 0.00in /  0mm 0 W/m2
23:30 64.9 °F /  18.3 °C 60.3 °F /  15.7 °C 29.94in /  1013.8hPa Calm     85% 0.00in /  0mm 0 W/m2
Hartford County Weather
Compliments of Weather Underground - 4 mb